createdAt,value
2022-08-10T00:01:53.529Z,15.00
2022-08-10T00:04:24.504Z,14.90
2022-08-10T00:06:55.246Z,14.98
2022-08-10T00:09:24.519Z,15.00
2022-08-10T00:11:52.554Z,15.00
2022-08-10T00:14:20.739Z,14.92
2022-08-10T00:16:49.206Z,14.90
2022-08-10T00:19:18.138Z,14.80
2022-08-10T00:21:47.540Z,14.80
2022-08-10T00:24:16.270Z,14.78
2022-08-10T00:27:51.913Z,14.70
2022-08-10T00:29:32.112Z,14.70
2022-08-10T00:31:59.942Z,14.66
2022-08-10T00:34:30.435Z,14.70
2022-08-10T00:37:00.522Z,14.60
2022-08-10T00:39:30.020Z,14.60
2022-08-10T00:42:09.993Z,14.60
2022-08-10T00:44:45.455Z,14.60
2022-08-10T00:47:36.124Z,14.60
2022-08-10T00:50:08.350Z,14.60
2022-08-10T00:52:38.189Z,14.60
2022-08-10T00:55:06.918Z,14.70
2022-08-10T00:57:35.610Z,14.80
2022-08-10T01:00:06.078Z,14.80
2022-08-10T01:02:34.059Z,14.70
2022-08-10T01:05:11.484Z,14.68
2022-08-10T01:08:15.704Z,14.66
2022-08-10T01:12:38.894Z,14.60
2022-08-10T01:14:29.296Z,14.56
2022-08-10T01:17:22.009Z,14.50
2022-08-10T01:20:30.173Z,14.50
2022-08-10T01:23:33.487Z,14.50
2022-08-10T01:26:30.448Z,14.58
2022-08-10T01:30:04.542Z,14.50
2022-08-10T01:33:06.272Z,14.40
2022-08-10T01:35:50.234Z,14.40
2022-08-10T01:38:31.782Z,14.40
2022-08-10T01:41:05.658Z,14.46
2022-08-10T01:43:41.013Z,14.50
2022-08-10T01:46:13.665Z,14.40
2022-08-10T01:48:51.021Z,14.36
2022-08-10T01:51:33.004Z,14.30
2022-08-10T01:54:10.759Z,14.30
2022-08-10T01:56:49.164Z,14.30
2022-08-10T01:59:30.202Z,14.22
2022-08-10T02:02:04.958Z,14.20
2022-08-10T02:04:38.088Z,14.20
2022-08-10T02:07:12.336Z,14.20
2022-08-10T02:09:47.553Z,14.20
2022-08-10T02:12:21.914Z,14.20
2022-08-10T02:14:58.256Z,14.20
2022-08-10T02:17:58.581Z,14.20
2022-08-10T02:20:40.808Z,14.20
2022-08-10T02:23:22.325Z,14.20
2022-08-10T02:25:54.387Z,14.20
2022-08-10T02:28:27.464Z,14.10
2022-08-10T02:31:10.394Z,14.06
2022-08-10T02:33:45.609Z,14.00
2022-08-10T02:36:29.974Z,13.90
2022-08-10T02:39:03.860Z,13.90
2022-08-10T02:45:14.850Z,13.92
2022-08-10T02:45:29.331Z,13.92
2022-08-10T02:48:41.982Z,13.90
2022-08-10T02:52:08.232Z,13.94
2022-08-10T02:54:43.393Z,14.00
2022-08-10T02:57:24.988Z,13.94
2022-08-10T02:59:59.136Z,13.90
2022-08-10T03:02:36.791Z,13.90
2022-08-10T03:05:14.467Z,13.90
2022-08-10T03:07:55.382Z,13.90
2022-08-10T03:10:29.790Z,13.90
2022-08-10T03:13:06.362Z,13.90
2022-08-10T03:15:37.702Z,13.96
2022-08-10T03:18:07.160Z,14.00
2022-08-10T03:20:42.087Z,14.00
2022-08-10T03:23:16.494Z,14.00
2022-08-10T03:25:53.408Z,14.00
2022-08-10T03:28:31.012Z,13.90
2022-08-10T03:31:00.666Z,13.90
2022-08-10T03:33:34.275Z,13.94
2022-08-10T03:36:42.445Z,14.00
2022-08-10T03:38:53.866Z,14.00
2022-08-10T03:41:47.771Z,13.96
2022-08-10T03:44:27.695Z,13.90
2022-08-10T03:46:59.855Z,13.90
2022-08-10T03:49:31.139Z,14.00
2022-08-10T03:51:59.990Z,14.00
2022-08-10T03:54:28.689Z,14.00
2022-08-10T03:56:56.927Z,14.00
2022-08-10T03:59:25.873Z,14.12
2022-08-10T04:02:45.531Z,14.40
2022-08-10T04:04:43.620Z,14.86
2022-08-10T04:07:11.804Z,14.90
2022-08-10T04:09:54.045Z,15.20
2022-08-10T04:12:24.087Z,15.56
2022-08-10T04:14:53.248Z,15.70
2022-08-10T04:17:57.137Z,15.76
2022-08-10T04:20:24.615Z,15.90
2022-08-10T04:22:56.815Z,16.10
2022-08-10T04:25:28.326Z,16.36
2022-08-10T04:27:58.018Z,16.50
2022-08-10T04:30:29.302Z,16.68
2022-08-10T04:33:02.489Z,16.80
2022-08-10T04:35:32.222Z,16.90
2022-08-10T04:38:03.322Z,17.10
2022-08-10T04:40:32.128Z,17.20
2022-08-10T04:43:11.806Z,17.36
2022-08-10T04:45:49.856Z,17.52
2022-08-10T04:48:40.748Z,17.70
2022-08-10T04:51:18.142Z,17.80
2022-08-10T04:54:06.028Z,17.92
2022-08-10T04:56:39.857Z,18.00
2022-08-10T04:59:11.450Z,18.10
2022-08-10T05:02:22.082Z,18.20
2022-08-10T05:04:35.285Z,18.30
2022-08-10T05:07:10.264Z,18.40
2022-08-10T05:10:02.911Z,18.50
2022-08-10T05:12:29.671Z,18.60
2022-08-10T05:14:57.878Z,18.60
2022-08-10T05:17:26.169Z,18.60
2022-08-10T05:20:03.647Z,18.62
2022-08-10T05:22:43.139Z,18.70
2022-08-10T05:25:16.918Z,18.70
2022-08-10T05:27:49.069Z,18.80
2022-08-10T05:30:22.121Z,18.90
2022-08-10T05:32:57.842Z,19.00
2022-08-10T05:35:51.945Z,19.10
2022-08-10T05:38:21.579Z,19.20
2022-08-10T05:40:50.675Z,19.28
2022-08-10T05:43:21.287Z,19.40
2022-08-10T05:46:18.840Z,19.60
2022-08-10T05:48:59.147Z,19.80
2022-08-10T05:51:31.674Z,20.20
2022-08-10T05:54:06.040Z,20.48
2022-08-10T05:56:55.827Z,20.88
2022-08-10T06:00:35.179Z,21.10
2022-08-10T06:02:37.342Z,21.20
2022-08-10T06:05:16.027Z,21.34
2022-08-10T06:07:55.311Z,21.30
2022-08-10T06:10:31.611Z,21.30
2022-08-10T06:13:30.546Z,21.40
2022-08-10T06:16:07.266Z,21.30
2022-08-10T06:18:39.317Z,21.40
2022-08-10T06:21:23.261Z,21.40
2022-08-10T06:24:00.601Z,21.20
2022-08-10T06:26:29.057Z,20.94
2022-08-10T06:29:07.574Z,20.80
2022-08-10T06:31:47.878Z,20.84
2022-08-10T06:34:35.262Z,20.80
2022-08-10T06:37:07.805Z,20.80
2022-08-10T06:39:48.717Z,20.92
2022-08-10T06:42:32.979Z,21.20
2022-08-10T06:45:26.717Z,21.40
2022-08-10T06:48:06.328Z,21.32
2022-08-10T06:50:58.526Z,21.30
2022-08-10T06:53:53.097Z,21.40
2022-08-10T06:56:37.802Z,21.68
2022-08-10T06:59:27.820Z,21.70
2022-08-10T07:02:29.333Z,21.60
2022-08-10T07:05:09.075Z,21.50
2022-08-10T07:07:43.089Z,21.70
2022-08-10T07:10:16.459Z,21.90
2022-08-10T07:12:47.782Z,22.00
2022-08-10T07:15:22.307Z,22.30
2022-08-10T07:17:53.370Z,22.48
2022-08-10T07:20:24.744Z,22.50
2022-08-10T07:23:53.833Z,22.40
2022-08-10T07:25:48.003Z,22.40
2022-08-10T07:28:18.322Z,22.30
2022-08-10T07:30:47.677Z,22.30
2022-08-10T07:33:19.639Z,22.40
2022-08-10T07:35:50.528Z,22.40
2022-08-10T07:38:31.897Z,22.44
2022-08-10T07:41:01.621Z,22.50
2022-08-10T07:43:37.611Z,22.60
2022-08-10T07:46:12.432Z,22.60
2022-08-10T07:48:58.508Z,22.36
2022-08-10T07:51:28.223Z,22.10
2022-08-10T07:54:16.197Z,22.02
2022-08-10T07:56:50.690Z,21.90
2022-08-10T07:59:38.592Z,22.00
2022-08-10T08:02:17.945Z,22.18
2022-08-10T08:04:48.713Z,22.00
2022-08-10T08:07:37.587Z,21.80
2022-08-10T08:10:11.978Z,21.90
2022-08-10T08:12:42.614Z,22.16
2022-08-10T08:16:18.861Z,22.40
2022-08-10T08:18:12.295Z,22.60
2022-08-10T08:20:42.026Z,22.60
2022-08-10T08:24:08.088Z,22.40
2022-08-10T08:26:03.038Z,22.10
2022-08-10T08:28:34.663Z,21.98
2022-08-10T08:31:04.713Z,22.02
2022-08-10T08:33:42.416Z,22.20
2022-08-10T08:36:16.440Z,22.30
2022-08-10T08:38:47.703Z,22.50
2022-08-10T08:41:42.690Z,22.50
2022-08-10T08:44:35.116Z,22.70
2022-08-10T08:48:04.829Z,22.90
2022-08-10T08:51:02.147Z,23.20
2022-08-10T08:54:16.901Z,23.54
2022-08-10T08:57:10.243Z,23.60
2022-08-10T09:00:15.429Z,23.48
2022-08-10T09:03:51.898Z,22.88
2022-08-10T09:08:00.963Z,22.70
2022-08-10T09:10:37.738Z,22.80
2022-08-10T09:13:30.039Z,23.12
2022-08-10T09:16:40.064Z,23.30
2022-08-10T09:19:36.458Z,23.20
2022-08-10T09:22:18.035Z,23.10
2022-08-10T09:25:17.904Z,23.30
2022-08-10T09:27:52.629Z,23.30
2022-08-10T09:31:03.718Z,23.48
2022-08-10T09:36:22.796Z,23.50
2022-08-10T09:37:24.214Z,23.00
2022-08-10T09:41:01.230Z,22.60
2022-08-10T09:43:49.511Z,22.74
2022-08-10T09:46:46.156Z,23.06
2022-08-10T09:49:54.600Z,23.50
2022-08-10T09:52:58.827Z,24.00
2022-08-10T09:56:17.953Z,24.24
2022-08-10T09:59:59.355Z,24.46
2022-08-10T10:02:12.417Z,24.40
2022-08-10T10:04:57.387Z,24.66
2022-08-10T10:07:30.600Z,24.84
2022-08-10T10:10:12.166Z,24.70
2022-08-10T10:13:09.441Z,24.64
2022-08-10T10:16:38.710Z,24.58
2022-08-10T10:19:28.035Z,24.58
2022-08-10T10:22:26.593Z,24.70
2022-08-10T10:25:50.395Z,24.70
2022-08-10T10:29:30.621Z,24.80
2022-08-10T10:32:04.029Z,24.72
2022-08-10T10:34:49.117Z,24.90
2022-08-10T10:37:22.076Z,24.58
2022-08-10T10:40:11.311Z,24.60
2022-08-10T10:43:25.802Z,24.74
2022-08-10T10:46:38.281Z,24.70
2022-08-10T10:50:04.210Z,24.70
2022-08-10T10:53:32.717Z,24.60
2022-08-10T10:56:15.371Z,24.70
2022-08-10T10:59:54.546Z,24.94
2022-08-10T11:02:27.676Z,25.20
2022-08-10T11:05:19.285Z,25.30
2022-08-10T11:08:01.228Z,25.30
2022-08-10T11:10:53.353Z,25.30
2022-08-10T11:14:25.727Z,25.34
2022-08-10T11:17:14.819Z,25.30
2022-08-10T11:20:24.854Z,25.40
2022-08-10T11:23:20.643Z,25.50
2022-08-10T11:25:59.658Z,25.24
2022-08-10T11:28:54.501Z,24.72
2022-08-10T11:31:33.835Z,24.70
2022-08-10T11:34:48.997Z,25.00
2022-08-10T11:37:18.068Z,24.90
2022-08-10T11:40:34.818Z,25.02
2022-08-10T11:43:21.221Z,25.00
2022-08-10T11:46:07.662Z,24.44
2022-08-10T11:48:52.953Z,24.20
2022-08-10T11:51:55.450Z,24.42
2022-08-10T11:54:47.163Z,24.70
2022-08-10T11:57:25.471Z,24.56
2022-08-10T12:00:15.122Z,24.60
2022-08-10T12:03:07.571Z,24.62
2022-08-10T12:05:48.269Z,24.50
2022-08-10T12:10:06.364Z,24.38
2022-08-10T12:11:29.259Z,24.14
2022-08-10T12:14:32.711Z,23.86
2022-08-10T12:17:10.120Z,23.50
2022-08-10T12:19:59.872Z,23.50
2022-08-10T12:23:10.566Z,23.62
2022-08-10T12:26:11.872Z,23.90
2022-08-10T12:29:06.344Z,24.00
2022-08-10T12:31:52.215Z,24.02
2022-08-10T12:34:42.083Z,24.20
2022-08-10T12:37:23.629Z,24.30
2022-08-10T12:40:36.465Z,24.40
2022-08-10T12:44:06.913Z,24.70
2022-08-10T12:46:22.864Z,24.70
2022-08-10T12:49:06.287Z,24.50
2022-08-10T12:51:38.132Z,24.50
2022-08-10T12:54:31.916Z,24.60
2022-08-10T12:57:09.373Z,24.70
2022-08-10T12:59:43.948Z,24.70
2022-08-10T13:02:25.745Z,24.60
2022-08-10T13:05:01.293Z,24.40
2022-08-10T13:08:24.167Z,24.40
2022-08-10T13:10:24.623Z,24.60
2022-08-10T13:12:56.981Z,24.70
2022-08-10T13:15:48.381Z,24.62
2022-08-10T13:18:29.391Z,24.70
2022-08-10T13:21:20.453Z,24.70
2022-08-10T13:24:03.573Z,24.68
2022-08-10T13:27:25.048Z,24.70
2022-08-10T13:29:36.833Z,24.50
2022-08-10T13:32:10.298Z,24.50
2022-08-10T13:34:46.588Z,24.38
2022-08-10T13:37:20.357Z,24.30
2022-08-10T13:39:59.731Z,24.10
2022-08-10T13:42:37.034Z,24.10
2022-08-10T13:45:20.905Z,24.18
2022-08-10T13:47:54.771Z,24.30
2022-08-10T13:50:34.945Z,24.40
2022-08-10T13:53:18.094Z,24.30
2022-08-10T13:55:56.706Z,24.22
2022-08-10T13:58:33.880Z,24.30
2022-08-10T14:01:11.434Z,24.34
2022-08-10T14:03:43.260Z,24.40
2022-08-10T14:06:15.611Z,24.20
2022-08-10T14:08:56.523Z,24.00
2022-08-10T14:11:27.956Z,23.80
2022-08-10T14:14:07.344Z,23.80
2022-08-10T14:16:42.766Z,23.86
2022-08-10T14:19:17.339Z,23.94
2022-08-10T14:21:45.573Z,24.00
2022-08-10T14:24:28.073Z,23.90
2022-08-10T14:27:07.384Z,23.76
2022-08-10T14:29:45.180Z,23.46
2022-08-10T14:32:17.643Z,23.30
2022-08-10T14:36:16.111Z,23.30
2022-08-10T14:37:54.646Z,23.30
2022-08-10T14:40:33.702Z,23.12
2022-08-10T14:43:30.352Z,23.10
2022-08-10T14:46:11.074Z,23.20
2022-08-10T14:48:45.287Z,23.20
2022-08-10T14:51:18.278Z,23.20
2022-08-10T14:54:00.804Z,23.10
2022-08-10T14:56:33.977Z,23.10
2022-08-10T14:59:07.701Z,23.00
2022-08-10T15:02:00.159Z,22.80
2022-08-10T15:04:33.740Z,22.60
2022-08-10T15:07:12.230Z,22.70
2022-08-10T15:09:59.999Z,22.80
2022-08-10T15:12:35.139Z,22.80
2022-08-10T15:15:09.622Z,22.80
2022-08-10T15:17:44.847Z,22.80
2022-08-10T15:20:21.515Z,22.80
2022-08-10T15:23:04.071Z,22.82
2022-08-10T15:25:39.254Z,22.80
2022-08-10T15:28:16.654Z,22.70
2022-08-10T15:30:58.626Z,22.60
2022-08-10T15:34:04.445Z,22.60
2022-08-10T15:37:17.058Z,22.50
2022-08-10T15:40:23.991Z,22.20
2022-08-10T15:43:25.021Z,22.10
2022-08-10T15:46:00.167Z,21.90
2022-08-10T15:48:48.274Z,21.90
2022-08-10T15:51:52.784Z,21.80
2022-08-10T15:54:34.390Z,21.80
2022-08-10T15:57:17.751Z,21.76
2022-08-10T16:00:00.903Z,21.70
2022-08-10T16:02:40.210Z,21.60
2022-08-10T16:05:18.486Z,21.60
2022-08-10T16:08:12.560Z,21.58
2022-08-10T16:11:05.817Z,21.60
2022-08-10T16:13:50.173Z,21.70
2022-08-10T16:16:36.331Z,21.80
2022-08-10T16:19:23.759Z,21.70
2022-08-10T16:22:01.720Z,21.70
2022-08-10T16:24:41.667Z,21.70
2022-08-10T16:27:11.151Z,21.70
2022-08-10T16:29:56.401Z,21.90
2022-08-10T16:32:27.714Z,22.20
2022-08-10T16:34:59.760Z,22.50
2022-08-10T16:37:58.857Z,22.80
2022-08-10T16:40:30.095Z,23.06
2022-08-10T16:43:02.496Z,23.34
2022-08-10T16:45:38.662Z,23.50
2022-08-10T16:48:09.419Z,23.58
2022-08-10T16:50:51.292Z,23.70
2022-08-10T16:53:39.636Z,23.80
2022-08-10T17:15:29.317Z,23.40
2022-08-10T17:18:27.912Z,23.50
2022-08-10T17:21:51.785Z,23.70
2022-08-10T17:26:01.820Z,23.82
2022-08-10T17:29:04.877Z,23.92
2022-08-10T17:32:13.152Z,24.14
2022-08-10T17:35:01.482Z,24.22
2022-08-10T17:37:47.031Z,24.20
2022-08-10T17:40:41.537Z,24.30
2022-08-10T17:43:46.387Z,24.30
2022-08-10T17:46:20.301Z,24.10
2022-08-10T17:48:50.522Z,23.56
2022-08-10T17:51:28.706Z,22.94
2022-08-10T17:54:02.277Z,22.30
2022-08-10T17:56:37.770Z,21.80
2022-08-10T17:59:17.392Z,21.40
2022-08-10T18:01:58.875Z,21.10
2022-08-10T18:04:42.605Z,20.80
2022-08-10T18:07:13.337Z,20.50
2022-08-10T18:10:08.272Z,20.30
2022-08-10T18:13:07.293Z,20.10
2022-08-10T18:15:39.730Z,20.02
2022-08-10T18:18:21.084Z,19.90
2022-08-10T18:21:07.834Z,19.80
2022-08-10T18:23:52.711Z,19.70
2022-08-10T18:26:27.238Z,19.60
2022-08-10T18:28:57.046Z,19.50
2022-08-10T18:31:29.173Z,19.50
2022-08-10T18:34:00.853Z,19.50
2022-08-10T18:36:30.669Z,19.40
2022-08-10T18:39:03.181Z,19.40
2022-08-10T18:41:38.144Z,19.30
2022-08-10T18:44:37.229Z,19.30
2022-08-10T18:47:17.014Z,19.26
2022-08-10T18:50:06.188Z,19.20
2022-08-10T18:52:37.481Z,19.20
2022-08-10T18:55:23.187Z,19.20
2022-08-10T18:58:19.777Z,19.10
2022-08-10T19:01:28.017Z,19.10
2022-08-10T19:04:44.463Z,19.10
2022-08-10T19:08:30.847Z,19.10
2022-08-10T19:11:21.162Z,19.10
2022-08-10T19:14:15.134Z,19.10
2022-08-10T19:17:01.119Z,19.00
2022-08-10T19:19:51.506Z,19.00
2022-08-10T19:22:35.120Z,18.90
2022-08-10T19:26:36.502Z,18.90
2022-08-10T19:28:58.551Z,18.80
2022-08-10T19:32:04.075Z,18.70
2022-08-10T19:34:38.288Z,18.60
2022-08-10T19:37:35.771Z,18.50
2022-08-10T19:40:43.981Z,18.40
2022-08-10T19:44:01.664Z,18.32
2022-08-10T19:46:47.152Z,18.20
2022-08-10T19:49:44.435Z,18.20
2022-08-10T19:52:33.676Z,18.10
2022-08-10T19:55:42.571Z,18.08
2022-08-10T19:59:08.326Z,18.00
2022-08-10T20:01:55.349Z,17.90
2022-08-10T20:04:41.847Z,17.90
2022-08-10T20:07:26.026Z,17.80
2022-08-10T20:10:34.021Z,17.78
2022-08-10T20:13:24.355Z,17.60
2022-08-10T20:16:33.403Z,17.50
2022-08-10T20:19:15.925Z,17.40
2022-08-10T20:22:04.848Z,17.30
2022-08-10T20:25:14.695Z,17.20
2022-08-10T20:28:03.432Z,17.00
2022-08-10T20:31:07.416Z,17.00
2022-08-10T20:34:03.797Z,16.90
2022-08-10T20:37:51.728Z,16.90
2022-08-10T20:40:46.322Z,16.80
2022-08-10T20:43:35.115Z,16.80
2022-08-10T20:46:25.329Z,16.70
2022-08-10T20:49:05.026Z,16.70
2022-08-10T20:51:59.021Z,16.64
2022-08-10T20:54:46.155Z,16.60
2022-08-10T20:57:55.412Z,16.60
2022-08-10T21:00:46.783Z,16.60
2022-08-10T21:03:58.896Z,16.60
2022-08-10T21:07:28.406Z,16.50
2022-08-10T21:10:24.294Z,16.50
2022-08-10T21:13:07.251Z,16.50
2022-08-10T21:15:57.958Z,16.50
2022-08-10T21:19:09.702Z,16.40
2022-08-10T21:22:08.279Z,16.30
2022-08-10T21:25:01.099Z,16.20
2022-08-10T21:27:59.810Z,16.20
2022-08-10T21:30:53.400Z,16.20
2022-08-10T21:33:44.660Z,16.10
2022-08-10T21:36:33.950Z,16.00
2022-08-10T21:39:11.766Z,16.00
2022-08-10T21:42:18.910Z,16.00
2022-08-10T21:45:58.620Z,16.00
2022-08-10T21:49:03.566Z,16.00
2022-08-10T21:52:21.845Z,15.90
2022-08-10T21:55:17.466Z,15.90
2022-08-10T21:58:12.545Z,15.80
2022-08-10T22:01:13.159Z,15.62
2022-08-10T22:04:03.494Z,15.60
2022-08-10T22:06:56.564Z,15.60
2022-08-10T22:10:01.796Z,15.60
2022-08-10T22:13:01.191Z,15.50
2022-08-10T22:16:09.700Z,15.42
2022-08-10T22:19:13.486Z,15.40
2022-08-10T22:22:19.889Z,15.40
2022-08-10T22:25:39.420Z,15.40
2022-08-10T22:28:25.972Z,15.40
2022-08-10T22:35:12.545Z,15.36
2022-08-10T22:38:29.138Z,15.30
2022-08-10T22:41:31.981Z,15.24
2022-08-10T22:44:21.455Z,15.20
2022-08-10T22:47:11.224Z,15.12
2022-08-10T22:49:39.080Z,15.10
2022-08-10T22:52:16.865Z,15.10
2022-08-10T22:55:20.408Z,15.10
2022-08-10T22:58:09.609Z,15.00
2022-08-10T23:00:37.788Z,15.00
2022-08-10T23:03:25.015Z,14.90
2022-08-10T23:06:12.068Z,14.90
2022-08-10T23:09:06.783Z,14.80
2022-08-10T23:11:44.224Z,14.80
2022-08-10T23:14:15.213Z,14.70
2022-08-10T23:17:08.346Z,14.70
2022-08-10T23:19:47.203Z,14.70
2022-08-10T23:22:22.555Z,14.70
2022-08-10T23:25:06.757Z,14.60
2022-08-10T23:27:40.940Z,14.60
2022-08-10T23:30:17.828Z,14.60
2022-08-10T23:32:52.145Z,14.60
2022-08-10T23:36:29.454Z,14.60
2022-08-10T23:38:22.311Z,14.60
2022-08-10T23:40:55.027Z,14.60
2022-08-10T23:43:46.687Z,14.60
2022-08-10T23:46:24.530Z,14.54
2022-08-10T23:48:58.951Z,14.50
2022-08-10T23:51:54.534Z,14.50
2022-08-10T23:54:28.298Z,14.50
2022-08-10T23:57:01.931Z,14.48
2022-08-10T23:59:33.831Z,14.40
